Time;durP1;ratioP1;P1;durP2;ratioP2;P2;SDS_P1;SDS_P2;PMS_P1;PMS_P2;Temp;Humidity;BMP_temperature;BMP_pressure;BME280_temperature;BME280_humidity;BME280_pressure;Samples;Min_cycle;Max_cycle;Signal;HPM_P1;HPM_P2
2022/07/05 00:02:02;;;;;;;8.70;1.30;;;15.20;99.90;;;;;;5042223;28;20209;-74
2022/07/05 00:04:33;;;;;;;6.97;1.13;;;15.20;99.90;;;;;;5053062;28;20190;-74
2022/07/05 00:07:21;;;;;;;5.28;0.82;;;15.30;99.90;;;;;;5045934;28;20665;-74
2022/07/05 00:09:54;;;;;;;7.57;1.30;;;15.40;99.90;;;;;;5052922;28;20197;-73
2022/07/05 00:12:27;;;;;;;7.88;1.08;;;15.40;99.90;;;;;;5050863;28;20201;-75
2022/07/05 00:15:00;;;;;;;8.70;1.40;;;15.40;99.90;;;;;;5052334;28;20194;-75
2022/07/05 00:17:30;;;;;;;8.80;1.27;;;15.50;99.90;;;;;;5050895;28;20205;-73
2022/07/05 00:20:01;;;;;;;11.30;1.90;;;15.50;99.90;;;;;;5050710;28;20197;-74
2022/07/05 00:22:32;;;;;;;6.97;1.30;;;15.50;99.90;;;;;;5051834;28;20288;-73
2022/07/05 00:25:02;;;;;;;5.72;0.98;;;15.40;99.90;;;;;;5051123;28;20201;-73
2022/07/05 00:27:33;;;;;;;7.95;1.30;;;15.40;99.90;;;;;;5050840;28;20703;-74
2022/07/05 00:30:07;;;;;;;9.45;1.70;;;15.40;99.90;;;;;;5049707;28;20661;-74
2022/07/05 00:32:43;;;;;;;8.90;1.58;;;15.50;99.90;;;;;;5053568;28;20228;-76
2022/07/05 00:35:14;;;;;;;8.65;1.35;;;15.50;99.90;;;;;;5049276;28;20201;-73
2022/07/05 00:37:45;;;;;;;8.25;1.33;;;15.60;99.90;;;;;;5055551;28;20597;-74
2022/07/05 00:40:16;;;;;;;5.60;1.55;;;15.70;99.90;;;;;;5055704;28;20197;-74
2022/07/05 00:42:50;;;;;;;10.52;2.03;;;15.70;99.90;;;;;;5052803;28;20197;-76
2022/07/05 00:45:23;;;;;;;6.88;1.20;;;15.80;99.90;;;;;;5053047;28;20572;-74
2022/07/05 00:47:53;;;;;;;7.55;1.20;;;15.90;99.90;;;;;;5052559;28;20249;-73
2022/07/05 00:50:24;;;;;;;8.35;1.40;;;15.90;99.90;;;;;;5056354;28;20192;-74
2022/07/05 00:52:58;;;;;;;5.95;1.23;;;16.00;99.90;;;;;;5052713;28;20193;-73
2022/07/05 00:55:29;;;;;;;5.97;1.35;;;16.00;99.90;;;;;;5054497;28;20210;-73
2022/07/05 00:57:59;;;;;;;7.43;1.45;;;16.00;99.90;;;;;;5053201;28;20197;-74
2022/07/05 01:00:32;;;;;;;10.30;1.40;;;15.70;99.90;;;;;;5052406;28;20202;-75
2022/07/05 01:03:03;;;;;;;6.53;2.30;;;15.50;99.90;;;;;;5052038;28;20197;-74
2022/07/05 01:05:34;;;;;;;22.35;11.00;;;15.50;99.90;;;;;;5054848;28;20202;-76
2022/07/05 01:08:07;;;;;;;13.50;2.63;;;15.50;99.90;;;;;;5050655;28;20224;-74
2022/07/05 01:10:38;;;;;;;14.18;2.20;;;15.60;99.90;;;;;;5053166;28;20198;-73
2022/07/05 01:13:08;;;;;;;12.40;2.53;;;15.60;99.90;;;;;;5052536;28;20248;-75
2022/07/05 01:15:42;;;;;;;6.65;1.73;;;15.60;99.90;;;;;;5035907;28;20202;-73
2022/07/05 01:18:13;;;;;;;11.65;1.20;;;15.60;99.90;;;;;;5053839;28;20561;-73
2022/07/05 01:20:45;;;;;;;10.65;1.60;;;15.60;99.90;;;;;;5051337;28;20799;-74
2022/07/05 01:23:18;;;;;;;13.15;1.45;;;15.60;99.90;;;;;;5054475;28;20558;-74
2022/07/05 01:25:51;;;;;;;6.63;1.00;;;15.70;99.90;;;;;;5054118;28;20526;-74
2022/07/05 01:28:21;;;;;;;9.55;1.20;;;15.80;99.90;;;;;;5053221;28;21002;-73
2022/07/05 01:30:53;;;;;;;5.25;1.10;;;15.80;99.90;;;;;;5054171;28;20636;-74
2022/07/05 01:33:31;;;;;;;7.22;1.17;;;15.70;99.90;;;;;;5053014;28;20221;-74
2022/07/05 01:36:01;;;;;;;6.97;1.00;;;15.70;99.90;;;;;;5053374;28;20197;-72
2022/07/05 01:38:35;;;;;;;7.32;1.52;;;15.70;99.90;;;;;;5050237;28;20639;-74
2022/07/05 01:41:06;;;;;;;8.32;1.17;;;15.60;99.90;;;;;;5054135;28;20239;-74
2022/07/05 01:43:37;;;;;;;10.68;1.13;;;15.60;99.90;;;;;;5052187;28;20219;-74
2022/07/05 01:46:09;;;;;;;7.35;1.10;;;15.60;99.90;;;;;;5053335;28;20239;-74
2022/07/05 01:48:42;;;;;;;6.50;1.33;;;15.60;99.90;;;;;;5054019;28;20422;-73
2022/07/05 01:51:20;;;;;;;8.02;1.27;;;15.60;99.90;;;;;;5052715;28;20562;-74
2022/07/05 01:53:55;;;;;;;10.07;1.52;;;15.70;99.90;;;;;;5042350;28;20197;-73
2022/07/05 01:56:26;;;;;;;7.93;1.48;;;15.70;99.90;;;;;;5040841;28;20201;-74
2022/07/05 01:58:57;;;;;;;9.43;1.10;;;15.80;99.90;;;;;;5038191;28;20201;-74
2022/07/05 02:01:45;;;;;;;9.15;1.33;;;15.80;99.90;;;;;;5048364;28;20201;-74
2022/07/05 02:04:15;;;;;;;9.05;1.50;;;15.90;99.90;;;;;;5053271;28;20209;-74
2022/07/05 02:06:47;;;;;;;6.88;1.48;;;15.90;99.90;;;;;;5047586;28;20194;-76
2022/07/05 02:09:23;;;;;;;10.50;1.30;;;16.00;99.90;;;;;;5049332;28;20310;-75
2022/07/05 02:11:54;;;;;;;7.68;1.23;;;16.00;99.90;;;;;;5049393;28;20197;-74
2022/07/05 02:14:24;;;;;;;7.95;1.70;;;16.00;99.90;;;;;;5046895;28;20202;-75
2022/07/05 02:16:55;;;;;;;12.18;1.90;;;16.10;99.90;;;;;;5048813;28;20249;-76
2022/07/05 02:19:26;;;;;;;25.45;12.48;;;16.10;99.90;;;;;;5054000;28;20190;-74
2022/07/05 02:21:56;;;;;;;12.80;2.75;;;16.10;99.90;;;;;;5047207;28;20202;-76
2022/07/05 02:24:29;;;;;;;15.85;4.60;;;16.10;99.90;;;;;;5049691;28;20198;-75
2022/07/05 02:27:00;;;;;;;9.95;2.72;;;16.20;99.90;;;;;;5050507;28;20596;-75
2022/07/05 02:29:30;;;;;;;12.57;2.78;;;16.20;99.90;;;;;;5046476;28;20214;-75
2022/07/05 02:32:01;;;;;;;10.25;2.30;;;16.20;99.90;;;;;;5045216;28;20197;-75
2022/07/05 02:34:32;;;;;;;10.93;1.52;;;16.20;99.90;;;;;;5043729;28;20205;-75
2022/07/05 02:37:02;;;;;;;9.30;2.30;;;16.30;99.90;;;;;;5044276;28;20225;-75
2022/07/05 02:39:35;;;;;;;10.50;1.63;;;16.20;99.90;;;;;;5047623;28;20194;-76
2022/07/05 02:42:06;;;;;;;9.57;1.60;;;16.20;99.90;;;;;;5046558;28;20209;-76
2022/07/05 02:44:37;;;;;;;8.38;1.65;;;16.10;99.90;;;;;;5045798;28;20216;-76
2022/07/05 02:47:07;;;;;;;9.35;1.75;;;16.10;99.90;;;;;;5038477;28;20233;-75
2022/07/05 02:49:38;;;;;;;8.23;1.40;;;16.10;99.90;;;;;;5040201;28;20225;-75
2022/07/05 02:52:09;;;;;;;9.13;1.48;;;16.00;99.90;;;;;;5042311;28;20201;-75
2022/07/05 02:54:41;;;;;;;7.05;1.30;;;16.00;99.90;;;;;;5040927;28;20235;-75
2022/07/05 02:57:12;;;;;;;10.98;1.25;;;16.10;99.90;;;;;;5039138;28;20205;-75
2022/07/05 02:59:43;;;;;;;8.10;1.33;;;16.10;99.90;;;;;;5050198;28;20201;-74
2022/07/05 03:02:13;;;;;;;7.05;1.20;;;16.00;99.90;;;;;;5043014;28;20205;-74
2022/07/05 03:04:44;;;;;;;5.32;1.10;;;16.00;99.90;;;;;;5042316;28;20190;-75
2022/07/05 03:07:15;;;;;;;9.65;1.20;;;16.00;99.90;;;;;;5038363;28;20208;-75
2022/07/05 03:09:47;;;;;;;8.43;1.13;;;16.00;99.90;;;;;;5043641;28;20312;-75
2022/07/05 03:12:18;;;;;;;10.10;1.30;;;16.00;99.90;;;;;;5047516;28;20197;-74
2022/07/05 03:14:48;;;;;;;6.65;1.10;;;16.00;99.90;;;;;;5049777;28;20205;-74
2022/07/05 03:17:19;;;;;;;8.85;1.50;;;16.10;99.90;;;;;;5047123;28;20194;-74
2022/07/05 03:19:50;;;;;;;7.28;1.33;;;16.10;99.90;;;;;;5040482;28;20205;-73
2022/07/05 03:22:20;;;;;;;8.52;1.40;;;16.10;99.90;;;;;;5041962;28;20202;-74
2022/07/05 03:24:53;;;;;;;5.85;1.13;;;16.20;99.90;;;;;;5045190;28;20263;-77
2022/07/05 03:27:26;;;;;;;7.70;1.20;;;16.20;99.90;;;;;;5051579;28;20346;-75
2022/07/05 03:29:56;;;;;;;5.65;1.10;;;16.20;99.90;;;;;;5043754;28;20217;-74
2022/07/05 03:32:27;;;;;;;5.10;1.40;;;16.30;99.90;;;;;;5044241;28;20224;-74
2022/07/05 03:34:58;;;;;;;8.00;1.55;;;16.20;99.90;;;;;;5048973;28;20208;-74
2022/07/05 03:37:28;;;;;;;4.50;0.90;;;16.20;99.90;;;;;;5042437;28;20238;-75
2022/07/05 03:40:01;;;;;;;6.63;1.00;;;16.20;99.90;;;;;;5045498;28;20213;-74
2022/07/05 03:42:32;;;;;;;8.40;1.17;;;16.30;99.90;;;;;;5038630;28;20193;-75
2022/07/05 03:45:02;;;;;;;6.82;1.10;;;16.30;99.90;;;;;;5045234;28;20264;-73
2022/07/05 03:47:33;;;;;;;4.88;1.15;;;16.30;99.90;;;;;;5050092;28;20198;-74
2022/07/05 03:50:04;;;;;;;5.25;1.00;;;16.30;99.90;;;;;;5052149;28;20220;-74
2022/07/05 03:52:37;;;;;;;5.55;0.93;;;16.30;99.90;;;;;;5052053;28;20653;-73
2022/07/05 03:55:11;;;;;;;4.97;0.70;;;16.30;99.90;;;;;;5048676;28;20201;-73
2022/07/05 03:57:41;;;;;;;5.70;0.65;;;16.30;99.90;;;;;;5048439;28;20193;-73
2022/07/05 04:00:13;;;;;;;7.07;0.98;;;16.20;99.90;;;;;;5044758;28;20205;-73
2022/07/05 04:02:44;;;;;;;4.53;0.95;;;16.20;99.90;;;;;;5043895;28;20569;-73
2022/07/05 04:05:14;;;;;;;6.22;1.08;;;16.20;99.90;;;;;;5047312;28;20205;-73
2022/07/05 04:07:52;;;;;;;4.15;1.20;;;16.20;99.90;;;;;;5056532;28;20190;-73
2022/07/05 04:10:25;;;;;;;7.68;1.35;;;16.20;99.90;;;;;;5048173;28;20213;-74
2022/07/05 04:12:56;;;;;;;6.03;1.00;;;16.20;99.90;;;;;;5051057;28;20205;-75
2022/07/05 04:15:27;;;;;;;6.75;1.20;;;16.20;99.90;;;;;;5050981;28;20197;-75
2022/07/05 04:17:58;;;;;;;6.38;1.00;;;16.30;99.90;;;;;;5049123;28;20205;-75
2022/07/05 04:20:29;;;;;;;6.63;1.15;;;15.90;99.90;;;;;;5055468;28;20219;-73
2022/07/05 04:22:59;;;;;;;5.30;0.82;;;15.80;99.90;;;;;;5053692;28;20205;-75
2022/07/05 04:25:32;;;;;;;4.55;1.05;;;15.70;99.90;;;;;;5046114;28;20201;-74
2022/07/05 04:28:03;;;;;;;6.43;1.27;;;15.70;99.90;;;;;;5054407;28;20193;-74
2022/07/05 04:30:34;;;;;;;4.95;1.25;;;15.60;99.90;;;;;;5053621;28;20224;-74
2022/07/05 04:33:05;;;;;;;5.38;1.05;;;15.70;99.90;;;;;;5051794;28;20318;-74
2022/07/05 04:35:35;;;;;;;8.60;1.15;;;15.70;99.90;;;;;;5054605;28;20193;-74
2022/07/05 04:38:06;;;;;;;7.90;1.48;;;15.70;99.90;;;;;;5047542;28;20242;-73
2022/07/05 04:40:40;;;;;;;7.85;1.30;;;15.90;99.90;;;;;;5054731;28;20664;-74
2022/07/05 04:43:11;;;;;;;9.00;1.17;;;15.90;99.90;;;;;;5047675;28;20280;-74
2022/07/05 04:45:42;;;;;;;6.72;1.20;;;16.00;99.90;;;;;;5053249;28;20237;-73
2022/07/05 04:48:12;;;;;;;6.63;1.00;;;16.10;99.90;;;;;;5051657;28;20201;-73
2022/07/05 04:50:43;;;;;;;8.48;1.40;;;16.20;99.90;;;;;;5052891;28;20220;-74
2022/07/05 04:53:14;;;;;;;9.60;1.20;;;16.20;99.90;;;;;;5052770;28;20189;-76
2022/07/05 04:55:46;;;;;;;5.47;1.20;;;16.20;99.90;;;;;;5055142;28;20194;-76
2022/07/05 04:58:17;;;;;;;7.47;1.33;;;16.20;99.90;;;;;;5050881;28;20213;-73
2022/07/05 05:00:47;;;;;;;8.63;1.40;;;16.20;99.90;;;;;;5051384;28;20201;-75
2022/07/05 05:03:19;;;;;;;7.53;1.05;;;16.10;99.90;;;;;;5052837;28;20194;-73
2022/07/05 05:05:49;;;;;;;7.53;1.00;;;16.10;99.90;;;;;;5051547;28;20197;-73
2022/07/05 05:08:20;;;;;;;7.80;1.10;;;16.10;99.90;;;;;;5051523;28;20661;-73
2022/07/05 05:10:53;;;;;;;9.88;1.33;;;16.00;99.90;;;;;;5051207;28;20295;-73
2022/07/05 05:13:23;;;;;;;6.93;1.45;;;15.90;99.90;;;;;;5053788;28;20193;-73
2022/07/05 05:15:54;;;;;;;10.48;1.38;;;15.80;99.90;;;;;;5049502;28;20224;-73
2022/07/05 05:18:26;;;;;;;11.55;1.50;;;15.80;99.90;;;;;;5049026;28;20560;-74
2022/07/05 05:20:58;;;;;;;8.68;1.58;;;15.90;99.90;;;;;;5050507;28;20209;-74
2022/07/05 05:23:28;;;;;;;7.22;1.33;;;15.90;99.90;;;;;;5050765;28;20190;-74
2022/07/05 05:26:01;;;;;;;13.18;2.38;;;15.90;99.90;;;;;;5050854;28;20197;-74
2022/07/05 05:28:31;;;;;;;8.88;1.55;;;15.90;99.90;;;;;;5046494;28;20197;-75
2022/07/05 05:31:02;;;;;;;9.88;1.50;;;15.80;99.90;;;;;;5050843;28;20213;-73
2022/07/05 05:33:33;;;;;;;8.57;1.27;;;15.80;99.90;;;;;;5051791;28;20228;-75
2022/07/05 05:36:04;;;;;;;3.63;1.00;;;15.80;99.90;;;;;;5050247;28;20201;-74
2022/07/05 05:38:34;;;;;;;8.73;1.13;;;15.80;99.90;;;;;;5054299;28;20233;-73
2022/07/05 05:41:07;;;;;;;7.65;1.00;;;15.80;99.90;;;;;;5050898;28;20206;-73
2022/07/05 05:43:38;;;;;;;8.05;1.17;;;15.90;99.90;;;;;;5052172;28;20205;-72
2022/07/05 05:46:08;;;;;;;11.98;1.80;;;15.90;99.90;;;;;;5052700;28;20213;-74
2022/07/05 05:48:39;;;;;;;5.10;1.13;;;15.90;99.90;;;;;;5053214;28;20205;-74
2022/07/05 05:51:13;;;;;;;10.73;1.50;;;15.90;99.90;;;;;;5051890;28;20214;-74
2022/07/05 05:53:45;;;;;;;7.90;1.02;;;15.90;99.90;;;;;;5050599;28;20542;-73
2022/07/05 05:56:17;;;;;;;6.22;1.40;;;16.00;99.90;;;;;;5053091;28;20276;-73
2022/07/05 05:58:48;;;;;;;6.95;1.30;;;15.90;99.90;;;;;;5049516;28;20228;-76
2022/07/05 06:01:18;;;;;;;11.80;1.48;;;15.90;99.90;;;;;;5051372;28;20212;-74
2022/07/05 06:03:49;;;;;;;7.75;1.42;;;15.90;99.90;;;;;;5050119;28;20202;-73
2022/07/05 06:06:20;;;;;;;6.88;1.35;;;15.90;99.90;;;;;;5051553;28;20653;-74
2022/07/05 06:08:50;;;;;;;8.35;1.30;;;15.90;99.90;;;;;;5053887;28;20633;-75
2022/07/05 06:11:23;;;;;;;10.15;1.77;;;15.80;99.90;;;;;;5050724;28;20563;-75
2022/07/05 06:13:53;;;;;;;7.20;1.33;;;15.80;99.90;;;;;;5051483;28;20272;-74
2022/07/05 06:16:24;;;;;;;9.00;1.60;;;15.90;99.90;;;;;;5052997;28;20193;-73
2022/07/05 06:18:55;;;;;;;8.30;1.73;;;15.90;99.90;;;;;;5053508;28;20186;-75
2022/07/05 06:21:25;;;;;;;9.85;1.48;;;15.90;99.90;;;;;;5054335;28;20181;-73
2022/07/05 06:23:56;;;;;;;6.38;1.15;;;16.00;99.90;;;;;;5051737;28;20189;-74
2022/07/05 06:26:29;;;;;;;7.55;1.40;;;16.00;99.90;;;;;;5050349;28;20566;-73
2022/07/05 06:28:59;;;;;;;9.30;1.30;;;16.00;99.90;;;;;;5053009;28;20197;-74
2022/07/05 06:31:30;;;;;;;10.35;1.40;;;16.10;99.90;;;;;;5050635;28;20239;-74
2022/07/05 06:34:01;;;;;;;9.10;1.45;;;16.10;99.90;;;;;;5053380;28;20708;-74
2022/07/05 06:36:31;;;;;;;8.00;1.75;;;16.10;99.90;;;;;;5051255;28;20192;-74
2022/07/05 06:39:02;;;;;;;9.40;1.55;;;16.10;99.90;;;;;;5053594;28;20605;-74
2022/07/05 06:41:34;;;;;;;6.95;1.58;;;16.10;99.90;;;;;;5053598;28;20186;-73
2022/07/05 06:44:05;;;;;;;11.13;1.45;;;16.00;99.90;;;;;;5053501;28;20197;-74
2022/07/05 06:46:36;;;;;;;7.45;1.35;;;15.90;99.90;;;;;;5053497;28;20587;-74
2022/07/05 06:49:06;;;;;;;7.53;1.25;;;15.90;99.90;;;;;;5053192;28;20190;-74
2022/07/05 06:51:37;;;;;;;5.15;1.10;;;15.90;99.90;;;;;;5053683;28;20646;-74
2022/07/05 06:54:08;;;;;;;6.70;1.38;;;15.90;99.90;;;;;;5053245;28;20193;-73
2022/07/05 06:56:40;;;;;;;10.07;1.30;;;15.90;99.90;;;;;;5053487;28;20200;-74
2022/07/05 06:59:11;;;;;;;6.75;1.50;;;15.80;99.90;;;;;;5053384;28;20194;-74
2022/07/05 07:01:41;;;;;;;6.18;1.15;;;15.80;99.90;;;;;;5053372;28;20193;-74
2022/07/05 07:04:12;;;;;;;8.48;1.35;;;15.80;99.90;;;;;;5052644;28;20239;-73
2022/07/05 07:06:43;;;;;;;6.13;1.30;;;15.80;99.90;;;;;;5053216;28;20601;-73
2022/07/05 07:09:22;;;;;;;13.73;1.45;;;15.90;99.90;;;;;;5053134;28;20584;-75
2022/07/05 07:11:55;;;;;;;10.98;1.30;;;15.90;99.90;;;;;;5053279;28;20189;-74
2022/07/05 07:14:26;;;;;;;10.05;1.30;;;15.90;99.90;;;;;;5049816;28;20196;-74
2022/07/05 07:16:57;;;;;;;7.75;1.10;;;15.90;99.90;;;;;;5050835;28;20197;-73
2022/07/05 07:19:28;;;;;;;9.30;1.30;;;15.90;99.90;;;;;;5053030;28;20719;-73
2022/07/05 07:21:58;;;;;;;9.70;1.35;;;16.00;99.90;;;;;;5042418;28;20348;-75
2022/07/05 07:24:29;;;;;;;6.45;1.02;;;15.90;99.90;;;;;;5046857;28;20194;-75
2022/07/05 07:27:04;;;;;;;4.43;1.10;;;15.90;99.90;;;;;;5051726;28;20196;-74
2022/07/05 07:29:36;;;;;;;7.57;1.40;;;15.90;99.90;;;;;;5050210;28;20185;-75
2022/07/05 07:32:08;;;;;;;4.72;1.20;;;15.90;99.90;;;;;;5050918;28;20621;-74
2022/07/05 07:34:39;;;;;;;6.43;2.20;;;15.90;99.90;;;;;;5053337;28;20198;-74
2022/07/05 07:37:13;;;;;;;16.70;7.13;;;15.90;99.90;;;;;;5053112;28;20228;-73
2022/07/05 07:39:43;;;;;;;23.10;11.57;;;16.00;99.90;;;;;;5051555;28;20217;-73
2022/07/05 07:42:16;;;;;;;16.05;4.78;;;16.00;99.90;;;;;;5051345;28;20185;-74
2022/07/05 07:44:47;;;;;;;13.57;2.72;;;16.00;99.90;;;;;;5050531;28;20206;-74
2022/07/05 07:47:17;;;;;;;9.75;2.00;;;16.00;99.90;;;;;;5051086;28;20205;-74
2022/07/05 07:49:48;;;;;;;8.45;2.88;;;16.00;99.90;;;;;;5051596;28;20209;-74
2022/07/05 07:52:19;;;;;;;11.20;2.28;;;16.00;99.90;;;;;;5052529;28;20189;-74
2022/07/05 07:54:49;;;;;;;7.90;1.60;;;16.00;99.90;;;;;;5052463;28;20194;-74
2022/07/05 07:57:22;;;;;;;9.90;1.60;;;16.00;99.90;;;;;;5051135;28;20206;-74
2022/07/05 07:59:52;;;;;;;7.10;1.88;;;16.00;99.90;;;;;;5051100;28;20201;-75
2022/07/05 08:02:23;;;;;;;8.52;1.40;;;16.00;99.90;;;;;;5052345;28;20649;-74
2022/07/05 08:04:54;;;;;;;9.43;1.40;;;15.90;99.90;;;;;;5052958;28;20217;-74
2022/07/05 08:07:25;;;;;;;9.45;1.40;;;15.90;99.90;;;;;;5046058;28;20650;-74
2022/07/05 08:09:55;;;;;;;6.57;1.20;;;15.90;99.90;;;;;;5049210;28;20673;-74
2022/07/05 08:12:28;;;;;;;7.10;1.35;;;15.90;99.90;;;;;;5050403;28;20197;-74
2022/07/05 08:14:59;;;;;;;6.78;1.10;;;15.80;99.90;;;;;;5049283;28;20560;-73
2022/07/05 08:17:29;;;;;;;3.33;0.90;;;15.80;99.90;;;;;;5041878;28;20603;-74
2022/07/05 08:22:46;;;;;;;8.68;1.50;;;15.80;99.90;;;;;;5048287;28;20676;-74
2022/07/05 08:25:17;;;;;;;9.75;1.52;;;15.80;99.90;;;;;;5051912;28;20186;-73
2022/07/05 08:27:50;;;;;;;8.18;1.08;;;15.60;99.90;;;;;;5051736;28;20594;-74
2022/07/05 08:30:20;;;;;;;5.00;1.27;;;15.50;99.90;;;;;;5049249;28;20224;-73
2022/07/05 08:32:51;;;;;;;8.15;1.35;;;15.30;99.90;;;;;;5048578;28;20221;-73
2022/07/05 08:35:22;;;;;;;8.00;1.35;;;15.20;99.90;;;;;;5050470;28;20194;-73
2022/07/05 08:37:52;;;;;;;10.63;1.38;;;15.10;99.90;;;;;;5051778;28;20225;-73
2022/07/05 08:40:28;;;;;;;6.78;1.35;;;15.00;99.90;;;;;;5039837;28;20197;-74
2022/07/05 08:43:02;;;;;;;8.30;1.25;;;15.00;99.90;;;;;;5050296;28;20229;-73
2022/07/05 08:45:34;;;;;;;10.45;1.35;;;15.00;99.90;;;;;;5050026;28;20270;-74
2022/07/05 08:48:07;;;;;;;6.25;1.02;;;15.10;99.90;;;;;;5049582;28;20213;-73
2022/07/05 08:50:39;;;;;;;9.73;1.30;;;15.10;99.90;;;;;;5051269;28;20225;-73
2022/07/05 08:53:10;;;;;;;12.75;1.77;;;15.10;99.90;;;;;;5054063;28;20202;-73
2022/07/05 08:55:41;;;;;;;7.80;1.30;;;15.10;99.90;;;;;;5050340;28;20197;-72
2022/07/05 08:58:14;;;;;;;8.52;1.63;;;15.10;99.90;;;;;;5054461;28;20190;-73
2022/07/05 09:00:46;;;;;;;6.88;1.30;;;15.10;99.90;;;;;;5048261;28;20205;-72
2022/07/05 09:03:19;;;;;;;10.05;1.60;;;15.20;99.90;;;;;;5055449;28;20247;-73
2022/07/05 09:05:50;;;;;;;8.18;1.50;;;15.20;99.90;;;;;;5053352;28;20232;-72
2022/07/05 09:08:21;;;;;;;11.32;2.42;;;15.20;99.90;;;;;;5055880;28;20609;-73
2022/07/05 09:10:53;;;;;;;7.72;1.42;;;15.20;99.90;;;;;;5054287;28;20217;-73
2022/07/05 09:13:28;;;;;;;11.05;1.40;;;15.20;99.90;;;;;;5052681;28;20212;-73
2022/07/05 09:15:59;;;;;;;7.82;1.42;;;15.20;99.90;;;;;;5045432;28;20200;-72
2022/07/05 09:18:49;;;;;;;8.02;1.40;;;15.30;99.90;;;;;;5052444;28;20208;-74
2022/07/05 09:21:21;;;;;;;9.45;1.48;;;15.30;99.90;;;;;;5052273;28;20198;-72
2022/07/05 09:23:58;;;;;;;8.15;1.23;;;15.30;99.90;;;;;;5054050;28;20243;-73
2022/07/05 09:26:36;;;;;;;9.38;1.10;;;15.30;99.90;;;;;;5053246;28;20205;-73
2022/07/05 09:29:10;;;;;;;8.60;1.30;;;15.40;99.90;;;;;;5052630;28;20201;-73
2022/07/05 09:31:41;;;;;;;7.80;0.95;;;15.40;99.90;;;;;;5051618;28;20217;-74
2022/07/05 09:34:13;;;;;;;7.05;1.38;;;15.50;99.90;;;;;;5054173;28;20212;-73
2022/07/05 09:36:57;;;;;;;6.90;1.30;;;15.50;99.90;;;;;;5054355;28;20197;-73
2022/07/05 09:39:46;;;;;;;6.80;1.27;;;15.50;99.90;;;;;;5050795;28;20608;-73
2022/07/05 09:42:20;;;;;;;8.88;1.30;;;15.60;99.90;;;;;;5053449;28;20209;-73
2022/07/05 09:44:53;;;;;;;5.05;1.23;;;15.60;99.90;;;;;;5052878;28;20197;-73
2022/07/05 09:47:24;;;;;;;6.13;1.15;;;15.60;99.90;;;;;;5053525;28;20561;-74
2022/07/05 09:49:56;;;;;;;5.70;0.98;;;15.50;99.90;;;;;;5055392;28;20265;-74
2022/07/05 09:52:33;;;;;;;10.20;1.70;;;15.60;99.90;;;;;;5052660;28;20210;-73
2022/07/05 09:55:08;;;;;;;8.32;1.60;;;15.60;99.90;;;;;;5054068;28;20213;-73
2022/07/05 09:57:41;;;;;;;9.50;1.27;;;15.60;99.90;;;;;;5050436;28;20208;-73
2022/07/05 10:00:16;;;;;;;7.43;1.23;;;15.60;99.90;;;;;;5050188;28;20287;-73
2022/07/05 10:02:47;;;;;;;8.93;1.48;;;15.50;99.90;;;;;;5050041;28;20272;-75
2022/07/05 10:05:19;;;;;;;9.32;1.38;;;15.60;99.90;;;;;;5034994;28;20190;-74
2022/07/05 10:07:51;;;;;;;6.03;1.30;;;15.50;99.90;;;;;;5044492;28;20194;-75
2022/07/05 10:10:22;;;;;;;9.85;1.42;;;15.70;99.90;;;;;;5054635;28;20190;-75
2022/07/05 10:12:54;;;;;;;9.15;1.60;;;15.70;99.90;;;;;;5043448;28;20202;-75
2022/07/05 10:15:30;;;;;;;8.65;1.55;;;15.70;99.90;;;;;;5039697;28;20564;-75
2022/07/05 10:18:06;;;;;;;8.15;1.40;;;15.70;99.90;;;;;;5053073;28;20637;-75
2022/07/05 10:20:42;;;;;;;6.55;1.42;;;15.70;99.90;;;;;;5050622;28;20208;-75
2022/07/05 10:23:13;;;;;;;31.80;14.60;;;15.60;99.90;;;;;;5034896;28;20221;-75
2022/07/05 10:25:47;;;;;;;78.82;39.38;;;15.60;99.90;;;;;;5045339;28;20637;-76
2022/07/05 10:28:19;;;;;;;15.75;3.10;;;15.70;99.90;;;;;;5053965;28;20210;-75
2022/07/05 10:30:52;;;;;;;10.90;4.30;;;15.70;99.90;;;;;;5045107;28;20753;-75
2022/07/05 10:33:26;;;;;;;11.43;2.45;;;15.80;99.90;;;;;;5047685;28;20218;-76
2022/07/05 10:35:58;;;;;;;6.90;1.88;;;15.80;99.90;;;;;;5047210;28;20224;-74
2022/07/05 10:38:29;;;;;;;11.95;2.00;;;15.80;99.90;;;;;;5044002;28;20657;-74
2022/07/05 10:41:05;;;;;;;6.97;1.38;;;15.80;99.90;;;;;;5051296;28;20212;-75
2022/07/05 10:43:36;;;;;;;12.50;2.00;;;15.70;99.90;;;;;;5042543;28;20201;-74
2022/07/05 10:46:08;;;;;;;11.50;1.88;;;15.80;99.90;;;;;;5052594;28;20198;-74
2022/07/05 10:48:39;;;;;;;7.53;1.52;;;15.70;99.90;;;;;;5051572;28;20197;-74
2022/07/05 10:51:18;;;;;;;9.85;1.50;;;15.80;99.90;;;;;;5042806;28;20688;-74
2022/07/05 10:54:05;;;;;;;7.30;1.42;;;15.80;99.90;;;;;;5046849;28;20201;-75
2022/07/05 10:56:36;;;;;;;10.90;1.92;;;15.80;99.90;;;;;;5050121;28;20652;-73
2022/07/05 10:59:13;;;;;;;7.28;1.38;;;15.80;99.90;;;;;;5051866;28;20648;-74
2022/07/05 11:01:46;;;;;;;10.85;1.50;;;15.70;99.90;;;;;;5047522;28;20201;-74
2022/07/05 11:04:38;;;;;;;8.98;1.30;;;15.60;99.90;;;;;;5049303;28;20189;-74
2022/07/05 11:07:09;;;;;;;8.32;1.40;;;15.70;99.90;;;;;;5068865;28;20212;-74
2022/07/05 11:09:39;;;;;;;9.80;1.60;;;15.60;99.90;;;;;;5052635;28;20200;-74
2022/07/05 11:12:16;;;;;;;13.13;1.58;;;15.60;99.90;;;;;;5050717;28;20225;-74
2022/07/05 11:14:51;;;;;;;10.23;1.50;;;15.70;99.90;;;;;;5052954;28;20209;-73
2022/07/05 11:17:36;;;;;;;9.50;1.33;;;15.70;99.90;;;;;;5049981;28;20676;-73
2022/07/05 11:20:15;;;;;;;12.20;1.52;;;15.80;99.90;;;;;;5046629;28;20691;-74
2022/07/05 11:23:05;;;;;;;7.18;1.40;;;15.80;99.90;;;;;;5046808;28;20198;-75
2022/07/05 11:25:37;;;;;;;11.68;1.40;;;15.80;99.90;;;;;;5051805;28;20201;-73
2022/07/05 11:28:23;;;;;;;7.93;1.10;;;15.80;99.90;;;;;;5051480;28;20205;-74
2022/07/05 11:30:59;;;;;;;11.82;1.40;;;15.70;99.90;;;;;;5047112;28;20214;-75
2022/07/05 11:33:37;;;;;;;8.23;1.35;;;15.70;99.90;;;;;;5052019;28;20235;-74
2022/07/05 11:36:08;;;;;;;6.28;1.25;;;15.70;99.90;;;;;;5050074;28;20200;-74
2022/07/05 11:39:16;;;;;;;10.95;1.30;;;15.80;99.90;;;;;;5047558;28;20271;-75
2022/07/05 11:41:48;;;;;;;8.35;1.55;;;15.80;99.90;;;;;;5048741;28;20785;-74
2022/07/05 11:44:19;;;;;;;7.88;1.20;;;15.90;99.90;;;;;;5049800;28;20220;-75
2022/07/05 11:46:51;;;;;;;8.30;1.27;;;15.80;99.90;;;;;;5050039;28;20205;-74
2022/07/05 11:49:28;;;;;;;8.25;1.40;;;15.80;99.90;;;;;;5050808;28;20194;-74
2022/07/05 11:51:59;;;;;;;9.40;1.40;;;15.80;99.90;;;;;;5051721;28;20580;-74
2022/07/05 11:54:34;;;;;;;7.38;1.15;;;15.80;99.90;;;;;;5041087;28;20248;-74
2022/07/05 11:57:10;;;;;;;7.07;1.52;;;15.80;99.90;;;;;;5057407;28;20250;-74
2022/07/05 11:59:43;;;;;;;6.97;1.27;;;15.70;99.90;;;;;;5053428;28;20209;-74
2022/07/05 12:02:13;;;;;;;9.05;1.35;;;15.60;99.90;;;;;;5047241;28;20208;-74
2022/07/05 12:04:51;;;;;;;10.68;1.35;;;15.40;99.90;;;;;;5051812;28;20197;-74
2022/07/05 12:07:29;;;;;;;10.93;1.50;;;15.40;99.90;;;;;;5043405;28;20201;-74
2022/07/05 12:12:47;;;;;;;8.85;1.50;;;15.40;99.90;;;;;;5043968;28;20255;-74
2022/07/05 12:15:19;;;;;;;7.75;1.10;;;15.40;99.90;;;;;;5052611;28;20198;-74
2022/07/05 12:17:51;;;;;;;6.50;1.10;;;15.30;99.90;;;;;;5051375;28;20686;-75
2022/07/05 12:20:27;;;;;;;9.68;1.40;;;15.30;99.90;;;;;;5051438;28;20190;-75
2022/07/05 12:22:58;;;;;;;9.98;1.50;;;15.30;99.90;;;;;;5051377;28;20193;-74
2022/07/05 12:25:30;;;;;;;6.30;1.05;;;15.20;99.90;;;;;;5052613;28;20560;-74
2022/07/05 12:28:01;;;;;;;11.20;1.20;;;15.10;99.90;;;;;;5055796;28;20185;-74
2022/07/05 12:30:35;;;;;;;8.98;1.10;;;15.10;99.90;;;;;;5053984;28;20649;-74
2022/07/05 12:33:07;;;;;;;9.55;1.85;;;15.10;99.90;;;;;;5056048;28;20308;-75
2022/07/05 12:35:41;;;;;;;6.85;0.95;;;15.10;99.90;;;;;;5056058;28;20193;-75
2022/07/05 12:38:14;;;;;;;6.82;1.00;;;15.10;99.90;;;;;;5055902;28;20233;-75
2022/07/05 12:40:46;;;;;;;5.72;1.13;;;15.20;99.90;;;;;;5055649;28;20208;-75
2022/07/05 12:43:18;;;;;;;9.30;1.38;;;15.20;99.90;;;;;;5049375;28;20205;-75
2022/07/05 12:46:02;;;;;;;5.50;1.00;;;15.20;99.90;;;;;;5050734;28;20193;-75
2022/07/05 12:48:36;;;;;;;5.38;0.93;;;15.10;99.90;;;;;;5052401;28;20244;-75
2022/07/05 12:51:09;;;;;;;10.63;1.20;;;15.10;99.90;;;;;;5053814;28;20198;-75
2022/07/05 12:59:24;;;;;;;6.47;1.10;;;15.10;99.90;;;;;;5055432;28;20192;-74
2022/07/05 13:01:55;;;;;;;8.48;0.90;;;15.00;99.90;;;;;;5056345;28;20198;-75
2022/07/05 13:04:25;;;;;;;2.20;0.80;;;14.90;99.90;;;;;;5053357;28;20200;-75
2022/07/05 13:06:59;;;;;;;6.65;0.70;;;14.80;99.90;;;;;;5054864;28;20194;-74
2022/07/05 13:09:37;;;;;;;8.25;1.40;;;14.70;99.90;;;;;;5053836;28;20197;-74
2022/07/05 13:12:13;;;;;;;7.90;1.33;;;14.60;99.90;;;;;;5052713;28;20221;-75
2022/07/05 13:14:44;;;;;;;7.60;1.20;;;14.60;99.90;;;;;;5051110;28;20794;-76
2022/07/05 13:17:16;;;;;;;5.03;1.25;;;14.60;99.90;;;;;;5048238;28;20553;-74
2022/07/05 13:19:48;;;;;;;6.55;0.80;;;14.60;99.90;;;;;;5052095;28;20201;-75
2022/07/05 13:22:21;;;;;;;6.80;0.85;;;14.60;99.90;;;;;;5054352;28;20200;-75
2022/07/05 13:24:52;;;;;;;8.13;1.17;;;14.70;99.90;;;;;;5054288;28;20198;-74